Eye Of The Wind — GWAK — position and weather

sailwx.info

Track history (hours):
 
Tides and Currents Weather Stations Pressure Air Temp Water Temp Dewpoint Dewpoint Depression Visibility Wind Speed Wind Dir Waves Ship Positions

Eye Of The Wind

Last reported at 2017-May-09 11:51 UTC. Time now 2017-May-23 08:59 UTC.
Position N 54°05' E 009°19'.
Warning: this ship's position is 13 days out of date.

Length 33 m; draft 2.8 m.

Type: Sailing vessel. MMSI: 233789000.

Date/timePositionNaut miles runAvg speedWind from/ knotsBaromVisibWave heightAir tempDewpointWater temp
2017-May-09 11:51N 54°05' E 009°19'3 7.9
2017-May-09 11:31N 54°02' E 009°18'3 6.3
2017-May-09 11:01N 53°59' E 009°17'4 8.0
2017-May-09 10:30N 53°56' E 009°13'3 6.3
2017-May-09 10:00N 53°54' E 009°09'0 0.0
2017-May-09 09:31N 53°54' E 009°09'1 1.1
2017-May-09 09:01N 53°53' E 009°09'1 1.0
2017-May-09 08:31N 53°53' E 009°10'2 3.4
2017-May-09 08:00N 53°53' E 009°13'4 8.4
2017-May-09 07:30N 53°51' E 009°19'5 9.1
2017-May-09 07:01N 53°48' E 009°24'0 0.4
2017-May-09 06:28N 53°47' E 009°24'0 0.0
2017-May-09 05:58N 53°47' E 009°24'0 0.0
2017-May-09 05:22N 53°47' E 009°24'0 0.0
2017-May-09 04:58N 53°47' E 009°24'0 0.0
2017-May-09 04:28N 53°47' E 009°24'0 0.0
2017-May-09 03:58N 53°47' E 009°24'0 0.0
2017-May-09 03:28N 53°47' E 009°24'0 0.0
2017-May-09 02:58N 53°47' E 009°24'0 0.0
2017-May-09 02:25N 53°47' E 009°24'0 0.0
2017-May-09 01:58N 53°47' E 009°24'0 0.1
2017-May-09 01:28N 53°47' E 009°24'0 0.0
2017-May-09 00:58N 53°47' E 009°24'0 0.0
2017-May-09 00:28N 53°47' E 009°24'0 0.0
2017-May-08 23:58N 53°47' E 009°24'0 0.0
2017-May-08 23:28N 53°47' E 009°24'0 0.0
2017-May-08 22:58N 53°47' E 009°24'0 0.0
2017-May-08 22:28N 53°47' E 009°24'0 0.8
2017-May-08 22:00N 53°48' E 009°24'1 2.0
2017-May-08 21:30N 53°47' E 009°24'3 5.3
2017-May-08 21:00N 53°44' E 009°26'3 6.8
2017-May-08 20:30N 53°42' E 009°30'4 8.6
2017-May-08 20:00N 53°38' E 009°32'5 9.3
2017-May-08 19:30N 53°35' E 009°38'5 9.6
2017-May-08 19:00N 53°34' E 009°46'5 9.6
2017-May-08 18:30N 53°33' E 009°54'3 5.6
2017-May-08 17:59N 53°33' E 009°59'0 0.0
2017-May-08 17:29N 53°33' E 009°59'0 0.0
2017-May-08 16:59N 53°33' E 009°59'0 0.0
2017-May-08 16:29N 53°33' E 009°59'0 0.0
2017-May-08 15:59N 53°33' E 009°59'0 0.0
2017-May-08 15:29N 53°33' E 009°59'0 0.0
2017-May-08 14:59N 53°33' E 009°59'0 0.0
2017-May-08 14:29N 53°33' E 009°59'0 0.0
2017-May-08 13:29N 53°33' E 009°59'0 0.0
2017-May-08 12:59N 53°33' E 009°59'0 0.0
2017-May-08 12:29N 53°33' E 009°59'0 0.0
2017-May-08 11:56N 53°33' E 009°59'0 0.0
2017-May-08 11:29N 53°33' E 009°59'0 0.0
2017-May-08 10:59N 53°33' E 009°59'0 0.0
2017-May-08 10:29N 53°33' E 009°59'0 0.0
2017-May-08 09:59N 53°33' E 009°59'0 0.0
2017-May-08 09:29N 53°33' E 009°59'0 0.0
2017-May-08 08:59N 53°33' E 009°59'0 0.0
2017-May-08 08:29N 53°33' E 009°59'0 0.0
2017-May-08 07:59N 53°33' E 009°59'0 0.0
2017-May-08 07:29N 53°33' E 009°59'0 0.0
2017-May-08 06:59N 53°33' E 009°59'0 0.0
2017-May-08 06:29N 53°33' E 009°59'0 0.0
2017-May-08 05:59N 53°33' E 009°59'0 0.0
2017-May-08 05:29N 53°33' E 009°59'0 0.0
2017-May-08 04:59N 53°33' E 009°59'0 0.0
2017-May-08 04:29N 53°33' E 009°59'0 0.0
2017-May-08 03:59N 53°33' E 009°59'0 0.0
2017-May-08 03:29N 53°33' E 009°59'0 0.0
2017-May-08 02:59N 53°33' E 009°59'0 0.0
2017-May-08 02:29N 53°33' E 009°59'0 0.0
2017-May-08 01:59N 53°33' E 009°59'0 0.0
2017-May-08 01:29N 53°33' E 009°59'0 0.0
2017-May-08 00:59N 53°33' E 009°59'0 0.0
2017-May-08 00:29N 53°33' E 009°59'0 0.0
2017-May-07 23:59N 53°33' E 009°59'0 0.0
2017-May-07 23:29N 53°33' E 009°59'0 0.0
2017-May-07 22:59N 53°33' E 009°59'0 0.0
2017-May-07 22:29N 53°33' E 009°59'0 0.0
2017-May-07 21:59N 53°33' E 009°59'0 0.0
2017-May-07 21:29N 53°33' E 009°59'0 0.0
2017-May-07 20:59N 53°33' E 009°59'0 0.0
2017-May-07 20:26N 53°33' E 009°59'0 0.0
2017-May-07 19:59N 53°33' E 009°59'0 0.0
2017-May-07 19:26N 53°33' E 009°59'0 0.0
2017-May-07 18:56N 53°33' E 009°59'0 0.0
2017-May-07 18:29N 53°33' E 009°59'0 0.0
2017-May-07 17:59N 53°33' E 009°59'1 2.0
2017-May-07 17:30N 53°33' E 009°57'2 3.7
2017-May-07 17:00N 53°32' E 009°54'2 4.3
2017-May-07 16:30N 53°33' E 009°58'2 3.4
2017-May-07 16:00N 53°32' E 010°00'0 0.2
2017-May-07 15:30N 53°32' E 010°01'1 2.2
2017-May-07 14:58N 53°32' E 009°59'1 1.6
2017-May-07 14:28N 53°33' E 009°57'0 0.4
2017-May-07 13:30N 53°33' E 009°58'1 1.1
2017-May-07 13:00N 53°33' E 009°59'0 0.0
2017-May-07 12:30N 53°33' E 009°59'0 0.0
2017-May-07 12:00N 53°33' E 009°59'0 0.0
2017-May-07 11:30N 53°33' E 009°59'0 0.0
2017-May-07 11:00N 53°33' E 009°59'0 0.1
2017-May-07 10:30N 53°33' E 009°59'3 6.3
2017-May-07 10:00N 53°32' E 009°54'0 0.3
2017-May-07 09:30N 53°33' E 009°53'2 3.5
2017-May-07 09:00N 53°32' E 009°56'0 0.8
2017-May-07 08:30N 53°33' E 009°56'2 2.8
2017-May-07 07:58N 53°33' E 009°59'0 0.0
2017-May-07 07:28N 53°33' E 009°59'0 0.0
2017-May-07 06:58N 53°33' E 009°59'0 0.0
2017-May-07 06:25N 53°33' E 009°59'0 0.0
2017-May-07 05:58N 53°33' E 009°59'0 0.0
2017-May-07 05:28N 53°33' E 009°59'0 0.0
2017-May-07 04:58N 53°33' E 009°59'0 0.0
2017-May-07 04:28N 53°33' E 009°59'0 0.0
2017-May-07 03:58N 53°33' E 009°59'0 0.0
2017-May-07 03:28N 53°33' E 009°59'0 0.0
2017-May-07 02:58N 53°33' E 009°59'0 0.0
2017-May-07 02:25N 53°33' E 009°59'0 0.0
2017-May-07 01:58N 53°33' E 009°59'0 0.0
2017-May-07 01:25N 53°33' E 009°59'0 0.0
2017-May-07 00:58N 53°33' E 009°59'0 0.0
2017-May-07 00:28N 53°33' E 009°59'0 0.0
2017-May-06 23:58N 53°33' E 009°59'0 0.0
2017-May-06 23:28N 53°33' E 009°59'0 0.0
2017-May-06 22:55N 53°33' E 009°59'0 0.0
2017-May-06 22:22N 53°33' E 009°59'0 0.0
2017-May-06 21:58N 53°33' E 009°59'0 0.0
2017-May-06 21:28N 53°33' E 009°59'0 0.0
2017-May-06 20:58N 53°33' E 009°59'0 0.0
2017-May-06 20:28N 53°33' E 009°59'0 0.0
2017-May-06 20:00N 53°33' E 009°59'0 0.6
2017-May-06 19:30N 53°33' E 009°58'2 4.9
2017-May-06 19:00N 53°32' E 009°54'2 3.1
2017-May-06 18:30N 53°33' E 009°52'2 3.1
2017-May-06 18:00N 53°33' E 009°54'1 2.8
2017-May-06 17:30N 53°33' E 009°57'2 3.0
2017-May-06 17:00N 53°32' E 009°59'0 0.6
2017-May-06 16:30N 53°32' E 009°59'0 0.3
2017-May-06 15:59N 53°33' E 009°59'0 0.0
2017-May-06 15:29N 53°33' E 009°59'0 0.0
2017-May-06 14:59N 53°33' E 009°59'0 0.0
2017-May-06 13:59N 53°33' E 009°59'0 0.0
2017-May-06 13:29N 53°33' E 009°59'0 0.0
2017-May-06 12:59N 53°33' E 009°59'0 0.0
2017-May-06 12:31N 53°33' E 009°59'1 1.6
2017-May-06 12:00N 53°33' E 009°57'2 4.1
2017-May-06 11:30N 53°32' E 009°54'2 3.6
2017-May-06 11:01N 53°33' E 009°51'1 1.8
2017-May-06 10:31N 53°33' E 009°52'0 0.4
2017-May-06 10:00N 53°33' E 009°53'1 2.2
2017-May-06 09:30N 53°33' E 009°55'1 2.1
2017-May-06 09:01N 53°33' E 009°56'1 2.8
2017-May-06 08:30N 53°33' E 009°59'0 0.1
2017-May-06 08:00N 53°33' E 009°59'0 0.0
2017-May-06 07:30N 53°33' E 009°59'0 0.0
2017-May-06 07:00N 53°33' E 009°59'0 0.0
2017-May-06 06:30N 53°33' E 009°59'0 0.0
2017-May-06 06:00N 53°33' E 009°59'0 0.0
2017-May-06 05:30N 53°33' E 009°59'0 0.0
2017-May-06 05:00N 53°33' E 009°59'0 0.0
2017-May-06 04:30N 53°33' E 009°59'0 0.0
2017-May-06 04:00N 53°33' E 009°59'0 0.0
2017-May-06 03:30N 53°33' E 009°59'0 0.0
2017-May-06 03:00N 53°33' E 009°59'0 0.0
2017-May-06 02:30N 53°33' E 009°59'0 0.0
2017-May-06 02:00N 53°33' E 009°59'0 0.0
2017-May-06 01:30N 53°33' E 009°59'0 0.0
2017-May-06 01:00N 53°33' E 009°59'0 0.0
2017-May-06 00:30N 53°33' E 009°59'0 0.0
2017-May-06 00:00N 53°33' E 009°59'0 0.0
2017-May-05 23:30N 53°33' E 009°59'0 0.0
2017-May-05 23:00N 53°33' E 009°59'0 0.0
2017-May-05 22:30N 53°33' E 009°59'0 0.0
2017-May-05 22:00N 53°33' E 009°59'0 0.0
2017-May-05 21:30N 53°33' E 009°59'0 0.0
2017-May-05 21:00N 53°33' E 009°59'0 0.0
2017-May-05 20:30N 53°33' E 009°59'0 0.0
2017-May-05 20:00N 53°33' E 009°59'0 0.0
2017-May-05 19:30N 53°33' E 009°59'0 0.0
2017-May-05 19:00N 53°33' E 009°59'0 0.0
2017-May-05 18:30N 53°33' E 009°59'0 0.0
2017-May-05 18:00N 53°33' E 009°59'0 0.0
2017-May-05 17:30N 53°33' E 009°59'0 0.0
2017-May-05 17:00N 53°33' E 009°59'0 0.0
2017-May-05 16:30N 53°33' E 009°59'0 0.0
2017-May-05 16:00N 53°33' E 009°59'0 0.9
2017-May-05 15:30N 53°32' E 009°59'1 3.0
2017-May-05 15:01N 53°33' E 009°57'2 4.8
2017-May-05 14:31N 53°32' E 009°53'2 2.2
2017-May-05 13:30N 53°33' E 009°56'1 2.8
2017-May-05 13:01N 53°33' E 009°59'0 0.0
2017-May-05 12:31N 53°33' E 009°59'0 0.0
2017-May-05 12:01N 53°33' E 009°59'0 0.0
2017-May-05 11:31N 53°33' E 009°59'0 0.0
2017-May-05 11:00N 53°33' E 009°59'2 3.4
2017-May-05 10:30N 53°32' E 009°56'3 6.0
2017-May-05 10:01N 53°33' E 009°51'1 1.0
2017-May-05 09:31N 53°33' E 009°52'2 3.4
2017-May-05 09:01N 53°33' E 009°55'2 3.4
2017-May-05 08:31N 53°33' E 009°57'1 1.5
2017-May-05 08:01N 53°33' E 009°59'0 0.0
2017-May-05 07:31N 53°33' E 009°59'0 0.0
2017-May-05 07:01N 53°33' E 009°59'0 0.0
2017-May-05 06:31N 53°33' E 009°59'0 0.0
2017-May-05 06:00N 53°33' E 009°59'0 0.0
2017-May-05 05:31N 53°33' E 009°59'0 0.0
2017-May-05 05:00N 53°33' E 009°59'0 0.0
2017-May-05 04:30N 53°33' E 009°59'0 0.0
2017-May-05 04:01N 53°33' E 009°59'0 0.0
2017-May-05 03:31N 53°33' E 009°59'0 0.0
2017-May-05 03:00N 53°33' E 009°59'0 0.0
2017-May-05 02:31N 53°33' E 009°59'0 0.0
2017-May-05 02:01N 53°33' E 009°59'0 0.0
2017-May-05 01:30N 53°33' E 009°59'0 0.0
2017-May-05 01:01N 53°33' E 009°59'0 0.0
2017-May-05 00:31N 53°33' E 009°59'0 0.0
2017-May-05 00:01N 53°33' E 009°59'0 0.0
2017-May-04 23:31N 53°33' E 009°59'0 0.0
2017-May-04 23:01N 53°33' E 009°59'0 0.0
2017-May-04 22:31N 53°33' E 009°59'0 0.0
2017-May-04 22:00N 53°33' E 009°59'0 0.0
2017-May-04 21:31N 53°33' E 009°59'0 0.0
2017-May-04 21:00N 53°33' E 009°59'0 0.0
2017-May-04 20:31N 53°33' E 009°59'0 0.0
2017-May-04 20:00N 53°33' E 009°59'0 0.0
2017-May-04 19:30N 53°33' E 009°59'0 0.0
2017-May-04 19:00N 53°33' E 009°59'0 0.0
2017-May-04 18:31N 53°33' E 009°59'0 0.0
2017-May-04 18:00N 53°33' E 009°59'0 0.0
2017-May-04 17:30N 53°33' E 009°59'0 0.0
2017-May-04 17:01N 53°33' E 009°59'0 0.0
2017-May-04 16:30N 53°33' E 009°59'0 0.0
2017-May-04 16:00N 53°33' E 009°59'0 0.0
2017-May-04 15:31N 53°33' E 009°59'0 0.0
2017-May-04 15:00N 53°33' E 009°59'0 0.0
2017-May-04 14:01N 53°33' E 009°59'0 0.0
2017-May-04 13:31N 53°33' E 009°59'0 0.0
2017-May-04 13:01N 53°33' E 009°59'0 0.0
2017-May-04 12:31N 53°33' E 009°59'0 0.0
2017-May-04 12:01N 53°33' E 009°59'0 0.0
2017-May-04 11:30N 53°33' E 009°59'0 0.0
2017-May-04 11:00N 53°33' E 009°59'0 0.0
2017-May-04 10:30N 53°33' E 009°59'0 0.0
2017-May-04 10:01N 53°33' E 009°59'0 0.0
2017-May-04 09:30N 53°33' E 009°59'0 0.0
2017-May-04 09:00N 53°33' E 009°59'0 0.0
2017-May-04 08:31N 53°33' E 009°59'0 0.0
2017-May-04 08:01N 53°33' E 009°59'0 0.0
2017-May-04 07:31N 53°33' E 009°59'0 0.0
2017-May-04 07:01N 53°33' E 009°59'0 0.0
2017-May-04 06:30N 53°33' E 009°59'0 0.0
2017-May-04 06:00N 53°33' E 009°59'0 0.0
2017-May-04 05:31N 53°33' E 009°59'0 0.0
2017-May-04 05:01N 53°33' E 009°59'0 0.0
2017-May-04 04:31N 53°33' E 009°59'0 0.0
2017-May-04 04:01N 53°33' E 009°59'0 0.0
2017-May-04 03:31N 53°33' E 009°59'0 0.0
2017-May-04 03:01N 53°33' E 009°59'0 0.0
2017-May-04 02:30N 53°33' E 009°59'0 0.0
2017-May-04 02:01N 53°33' E 009°59'0 0.0
2017-May-04 01:30N 53°33' E 009°59'0 0.0
2017-May-04 01:01N 53°33' E 009°59'0 0.0
2017-May-04 00:31N 53°33' E 009°59'0 0.0
2017-May-04 00:01N 53°33' E 009°59'0 0.0
2017-May-03 23:31N 53°33' E 009°59'0 0.0
2017-May-03 23:01N 53°33' E 009°59'0 0.0
2017-May-03 22:31N 53°33' E 009°59'0 0.0
2017-May-03 22:01N 53°33' E 009°59'0 0.0
2017-May-03 21:30N 53°33' E 009°59'0 0.0
2017-May-03 21:01N 53°33' E 009°59'0 0.0
2017-May-03 20:31N 53°33' E 009°59'0 0.0
2017-May-03 20:01N 53°33' E 009°59'0 0.0
2017-May-03 19:31N 53°33' E 009°59'0 0.0
2017-May-03 19:01N 53°33' E 009°59'0 0.0
2017-May-03 18:31N 53°33' E 009°59'0 0.0
2017-May-03 18:01N 53°33' E 009°59'0 0.0
2017-May-03 17:31N 53°33' E 009°59'0 0.0
2017-May-03 17:00N 53°33' E 009°59'0 0.0
2017-May-03 16:31N 53°33' E 009°59'0 0.0
2017-May-03 16:01N 53°33' E 009°59'0 0.0
2017-May-03 15:31N 53°33' E 009°59'0 0.0
2017-May-03 15:01N 53°33' E 009°59'0 0.0
2017-May-03 14:01N 53°33' E 009°59'0 0.0
2017-May-03 13:30N 53°33' E 009°59'0 0.0
2017-May-03 13:01N 53°33' E 009°59'0 0.0
2017-May-03 12:30N 53°33' E 009°59'0 0.0
2017-May-03 12:01N 53°33' E 009°59'0 0.0
2017-May-03 11:31N 53°33' E 009°59'0 0.0
2017-May-03 11:00N 53°33' E 009°59'0 0.0
2017-May-03 10:31N 53°33' E 009°59'0 0.0
2017-May-03 10:01N 53°33' E 009°59'0 0.0
2017-May-03 09:31N 53°33' E 009°59'0 0.0
2017-May-03 09:00N 53°33' E 009°59'0 0.1
2017-May-03 08:31N 53°33' E 009°59'3 5.9
2017-May-03 08:01N 53°32' E 009°54'4 7.3
2017-May-03 07:31N 53°33' E 009°48'4 7.8
2017-May-03 07:00N 53°34' E 009°41'4 7.4
2017-May-03 06:31N 53°36' E 009°36'4 8.0
2017-May-03 06:00N 53°39' E 009°31'4 8.8
2017-May-03 05:31N 53°43' E 009°29'4 8.4
2017-May-03 05:00N 53°46' E 009°24'2 3.1
2017-May-03 04:30N 53°47' E 009°24'0 0.5
2017-May-03 04:00N 53°47' E 009°25'0 0.0
2017-May-03 03:30N 53°47' E 009°25'0 0.0
2017-May-03 03:00N 53°47' E 009°25'0 0.0
2017-May-03 02:30N 53°47' E 009°25'0 0.0
2017-May-03 02:00N 53°47' E 009°25'0 0.0
2017-May-03 01:30N 53°47' E 009°25'0 0.0
2017-May-03 01:00N 53°47' E 009°25'0 0.0
2017-May-03 00:30N 53°47' E 009°25'0 0.0
2017-May-03 00:00N 53°47' E 009°25'0 0.0
2017-May-02 23:30N 53°47' E 009°25'0 0.0
2017-May-02 23:00N 53°47' E 009°25'0 0.0
2017-May-02 22:30N 53°47' E 009°25'0 0.0
2017-May-02 22:00N 53°47' E 009°25'0 0.0
2017-May-02 21:30N 53°47' E 009°25'0 0.0
2017-May-02 21:00N 53°47' E 009°25'0 0.0
2017-May-02 20:30N 53°47' E 009°25'0 0.0
2017-May-02 20:00N 53°47' E 009°25'0 0.0
2017-May-02 19:30N 53°47' E 009°25'0 0.0
2017-May-02 19:00N 53°47' E 009°25'0 0.0
2017-May-02 18:31N 53°47' E 009°25'0 0.0
2017-May-02 18:00N 53°47' E 009°25'0 0.0
2017-May-02 17:30N 53°47' E 009°25'0 0.0
2017-May-02 17:00N 53°47' E 009°25'0 0.0
2017-May-02 16:30N 53°47' E 009°25'0 0.0
2017-May-02 16:00N 53°47' E 009°25'1 1.0
2017-May-02 15:30N 53°47' E 009°24'4 8.2
2017-May-02 15:00N 53°51' E 009°20'5 9.4
2017-May-02 14:31N 53°53' E 009°13'8 8.2
2017-May-02 13:31N 53°51' E 008°59'4 7.8
2017-May-02 13:00N 53°50' E 008°52'4 6.8
2017-May-02 12:29N 53°51' E 008°46'4 6.3
2017-May-02 11:54N 53°53' E 008°42'  
2017-Apr-29 23:56N 53°19' E 005°03'4 7.9
2017-Apr-29 23:27N 53°19' E 005°10'3 6.5
2017-Apr-29 22:59N 53°16' E 005°10'3 5.8
2017-Apr-29 22:31N 53°14' E 005°13'3 6.1
2017-Apr-29 22:01N 53°13' E 005°18'3 5.7
2017-Apr-29 21:31N 53°11' E 005°21'2 4.3
2017-Apr-29 21:00N 53°10' E 005°25'0 0.0
2017-Apr-29 20:30N 53°10' E 005°25'0 0.0
2017-Apr-29 20:00N 53°10' E 005°25'0 0.0
2017-Apr-29 19:30N 53°10' E 005°25'0 0.0
2017-Apr-29 19:00N 53°10' E 005°25'0 0.0
2017-Apr-29 18:27N 53°10' E 005°25'0 0.0
2017-Apr-29 18:00N 53°10' E 005°25'0 0.0
2017-Apr-29 17:30N 53°10' E 005°25'0 0.0
2017-Apr-29 17:00N 53°10' E 005°25'0 0.0
2017-Apr-29 16:30N 53°10' E 005°25'0 0.0
2017-Apr-29 16:00N 53°10' E 005°25'0 0.0
2017-Apr-29 15:30N 53°10' E 005°25'0 0.0
2017-Apr-29 15:00N 53°10' E 005°25'0 0.0
2017-Apr-29 14:00N 53°10' E 005°25'0 0.0
2017-Apr-29 13:30N 53°10' E 005°25'0 0.0
2017-Apr-29 13:00N 53°10' E 005°25'0 0.0
2017-Apr-29 12:30N 53°10' E 005°25'0 0.0
2017-Apr-29 12:00N 53°10' E 005°25'  
Track history (hours):
 
Tides and Currents Weather Stations Pressure Air Temp Water Temp Dewpoint Dewpoint Depression Visibility Wind Speed Wind Dir Waves Ship Positions

Eye Of The Wind

Last reported at 2017-May-09 11:51 UTC. Time now 2017-May-23 08:59 UTC.
Position N 54°05' E 009°19'.
Warning: this ship's position is 13 days out of date.

Length 33 m; draft 2.8 m.

Type: Sailing vessel. MMSI: 233789000.

Date/timePositionNaut miles runAvg speedWind from/ knotsBaromVisibWave heightAir tempDewpointWater temp
2017-May-09 11:51N 54°05' E 009°19'3 7.9
2017-May-09 11:31N 54°02' E 009°18'3 6.3
2017-May-09 11:01N 53°59' E 009°17'4 8.0
2017-May-09 10:30N 53°56' E 009°13'3 6.3
2017-May-09 10:00N 53°54' E 009°09'0 0.0
2017-May-09 09:31N 53°54' E 009°09'1 1.1
2017-May-09 09:01N 53°53' E 009°09'1 1.0
2017-May-09 08:31N 53°53' E 009°10'2 3.4
2017-May-09 08:00N 53°53' E 009°13'4 8.4
2017-May-09 07:30N 53°51' E 009°19'5 9.1
2017-May-09 07:01N 53°48' E 009°24'0 0.4
2017-May-09 06:28N 53°47' E 009°24'0 0.0
2017-May-09 05:58N 53°47' E 009°24'0 0.0
2017-May-09 05:22N 53°47' E 009°24'0 0.0
2017-May-09 04:58N 53°47' E 009°24'0 0.0
2017-May-09 04:28N 53°47' E 009°24'0 0.0
2017-May-09 03:58N 53°47' E 009°24'0 0.0
2017-May-09 03:28N 53°47' E 009°24'0 0.0
2017-May-09 02:58N 53°47' E 009°24'0 0.0
2017-May-09 02:25N 53°47' E 009°24'0 0.0
2017-May-09 01:58N 53°47' E 009°24'0 0.1
2017-May-09 01:28N 53°47' E 009°24'0 0.0
2017-May-09 00:58N 53°47' E 009°24'0 0.0
2017-May-09 00:28N 53°47' E 009°24'0 0.0
2017-May-08 23:58N 53°47' E 009°24'0 0.0
2017-May-08 23:28N 53°47' E 009°24'0 0.0
2017-May-08 22:58N 53°47' E 009°24'0 0.0
2017-May-08 22:28N 53°47' E 009°24'0 0.8
2017-May-08 22:00N 53°48' E 009°24'1 2.0
2017-May-08 21:30N 53°47' E 009°24'3 5.3
2017-May-08 21:00N 53°44' E 009°26'3 6.8
2017-May-08 20:30N 53°42' E 009°30'4 8.6
2017-May-08 20:00N 53°38' E 009°32'5 9.3
2017-May-08 19:30N 53°35' E 009°38'5 9.6
2017-May-08 19:00N 53°34' E 009°46'5 9.6
2017-May-08 18:30N 53°33' E 009°54'3 5.6
2017-May-08 17:59N 53°33' E 009°59'0 0.0
2017-May-08 17:29N 53°33' E 009°59'0 0.0
2017-May-08 16:59N 53°33' E 009°59'0 0.0
2017-May-08 16:29N 53°33' E 009°59'0 0.0
2017-May-08 15:59N 53°33' E 009°59'0 0.0
2017-May-08 15:29N 53°33' E 009°59'0 0.0
2017-May-08 14:59N 53°33' E 009°59'0 0.0
2017-May-08 14:29N 53°33' E 009°59'0 0.0
2017-May-08 13:29N 53°33' E 009°59'0 0.0
2017-May-08 12:59N 53°33' E 009°59'0 0.0
2017-May-08 12:29N 53°33' E 009°59'0 0.0
2017-May-08 11:56N 53°33' E 009°59'0 0.0
2017-May-08 11:29N 53°33' E 009°59'0 0.0
2017-May-08 10:59N 53°33' E 009°59'0 0.0
2017-May-08 10:29N 53°33' E 009°59'0 0.0
2017-May-08 09:59N 53°33' E 009°59'0 0.0
2017-May-08 09:29N 53°33' E 009°59'0 0.0
2017-May-08 08:59N 53°33' E 009°59'0 0.0
2017-May-08 08:29N 53°33' E 009°59'0 0.0
2017-May-08 07:59N 53°33' E 009°59'0 0.0
2017-May-08 07:29N 53°33' E 009°59'0 0.0
2017-May-08 06:59N 53°33' E 009°59'0 0.0
2017-May-08 06:29N 53°33' E 009°59'0 0.0
2017-May-08 05:59N 53°33' E 009°59'0 0.0
2017-May-08 05:29N 53°33' E 009°59'0 0.0
2017-May-08 04:59N 53°33' E 009°59'0 0.0
2017-May-08 04:29N 53°33' E 009°59'0 0.0
2017-May-08 03:59N 53°33' E 009°59'0 0.0
2017-May-08 03:29N 53°33' E 009°59'0 0.0
2017-May-08 02:59N 53°33' E 009°59'0 0.0
2017-May-08 02:29N 53°33' E 009°59'0 0.0
2017-May-08 01:59N 53°33' E 009°59'0 0.0
2017-May-08 01:29N 53°33' E 009°59'0 0.0
2017-May-08 00:59N 53°33' E 009°59'0 0.0
2017-May-08 00:29N 53°33' E 009°59'0 0.0
2017-May-07 23:59N 53°33' E 009°59'0 0.0
2017-May-07 23:29N 53°33' E 009°59'0 0.0
2017-May-07 22:59N 53°33' E 009°59'0 0.0
2017-May-07 22:29N 53°33' E 009°59'0 0.0
2017-May-07 21:59N 53°33' E 009°59'0 0.0
2017-May-07 21:29N 53°33' E 009°59'0 0.0
2017-May-07 20:59N 53°33' E 009°59'0 0.0
2017-May-07 20:26N 53°33' E 009°59'0 0.0
2017-May-07 19:59N 53°33' E 009°59'0 0.0
2017-May-07 19:26N 53°33' E 009°59'0 0.0
2017-May-07 18:56N 53°33' E 009°59'0 0.0
2017-May-07 18:29N 53°33' E 009°59'0 0.0
2017-May-07 17:59N 53°33' E 009°59'1 2.0
2017-May-07 17:30N 53°33' E 009°57'2 3.7
2017-May-07 17:00N 53°32' E 009°54'2 4.3
2017-May-07 16:30N 53°33' E 009°58'2 3.4
2017-May-07 16:00N 53°32' E 010°00'0 0.2
2017-May-07 15:30N 53°32' E 010°01'1 2.2
2017-May-07 14:58N 53°32' E 009°59'1 1.6
2017-May-07 14:28N 53°33' E 009°57'0 0.4
2017-May-07 13:30N 53°33' E 009°58'1 1.1
2017-May-07 13:00N 53°33' E 009°59'0 0.0
2017-May-07 12:30N 53°33' E 009°59'0 0.0
2017-May-07 12:00N 53°33' E 009°59'0 0.0
2017-May-07 11:30N 53°33' E 009°59'0 0.0
2017-May-07 11:00N 53°33' E 009°59'0 0.1
2017-May-07 10:30N 53°33' E 009°59'3 6.3
2017-May-07 10:00N 53°32' E 009°54'0 0.3
2017-May-07 09:30N 53°33' E 009°53'2 3.5
2017-May-07 09:00N 53°32' E 009°56'0 0.8
2017-May-07 08:30N 53°33' E 009°56'2 2.8
2017-May-07 07:58N 53°33' E 009°59'0 0.0
2017-May-07 07:28N 53°33' E 009°59'0 0.0
2017-May-07 06:58N 53°33' E 009°59'0 0.0
2017-May-07 06:25N 53°33' E 009°59'0 0.0
2017-May-07 05:58N 53°33' E 009°59'0 0.0
2017-May-07 05:28N 53°33' E 009°59'0 0.0
2017-May-07 04:58N 53°33' E 009°59'0 0.0
2017-May-07 04:28N 53°33' E 009°59'0 0.0
2017-May-07 03:58N 53°33' E 009°59'0 0.0
2017-May-07 03:28N 53°33' E 009°59'0 0.0
2017-May-07 02:58N 53°33' E 009°59'0 0.0
2017-May-07 02:25N 53°33' E 009°59'0 0.0
2017-May-07 01:58N 53°33' E 009°59'0 0.0
2017-May-07 01:25N 53°33' E 009°59'0 0.0
2017-May-07 00:58N 53°33' E 009°59'0 0.0
2017-May-07 00:28N 53°33' E 009°59'0 0.0
2017-May-06 23:58N 53°33' E 009°59'0 0.0
2017-May-06 23:28N 53°33' E 009°59'0 0.0
2017-May-06 22:55N 53°33' E 009°59'0 0.0
2017-May-06 22:22N 53°33' E 009°59'0 0.0
2017-May-06 21:58N 53°33' E 009°59'0 0.0
2017-May-06 21:28N 53°33' E 009°59'0 0.0
2017-May-06 20:58N 53°33' E 009°59'0 0.0
2017-May-06 20:28N 53°33' E 009°59'0 0.0
2017-May-06 20:00N 53°33' E 009°59'0 0.6
2017-May-06 19:30N 53°33' E 009°58'2 4.9
2017-May-06 19:00N 53°32' E 009°54'2 3.1
2017-May-06 18:30N 53°33' E 009°52'2 3.1
2017-May-06 18:00N 53°33' E 009°54'1 2.8
2017-May-06 17:30N 53°33' E 009°57'2 3.0
2017-May-06 17:00N 53°32' E 009°59'0 0.6
2017-May-06 16:30N 53°32' E 009°59'0 0.3
2017-May-06 15:59N 53°33' E 009°59'0 0.0
2017-May-06 15:29N 53°33' E 009°59'0 0.0
2017-May-06 14:59N 53°33' E 009°59'0 0.0
2017-May-06 13:59N 53°33' E 009°59'0 0.0
2017-May-06 13:29N 53°33' E 009°59'0 0.0
2017-May-06 12:59N 53°33' E 009°59'0 0.0
2017-May-06 12:31N 53°33' E 009°59'1 1.6
2017-May-06 12:00N 53°33' E 009°57'2 4.1
2017-May-06 11:30N 53°32' E 009°54'2 3.6
2017-May-06 11:01N 53°33' E 009°51'1 1.8
2017-May-06 10:31N 53°33' E 009°52'0 0.4
2017-May-06 10:00N 53°33' E 009°53'1 2.2
2017-May-06 09:30N 53°33' E 009°55'1 2.1
2017-May-06 09:01N 53°33' E 009°56'1 2.8
2017-May-06 08:30N 53°33' E 009°59'0 0.1
2017-May-06 08:00N 53°33' E 009°59'0 0.0
2017-May-06 07:30N 53°33' E 009°59'0 0.0
2017-May-06 07:00N 53°33' E 009°59'0 0.0
2017-May-06 06:30N 53°33' E 009°59'0 0.0
2017-May-06 06:00N 53°33' E 009°59'0 0.0
2017-May-06 05:30N 53°33' E 009°59'0 0.0
2017-May-06 05:00N 53°33' E 009°59'0 0.0
2017-May-06 04:30N 53°33' E 009°59'0 0.0
2017-May-06 04:00N 53°33' E 009°59'0 0.0
2017-May-06 03:30N 53°33' E 009°59'0 0.0
2017-May-06 03:00N 53°33' E 009°59'0 0.0
2017-May-06 02:30N 53°33' E 009°59'0 0.0
2017-May-06 02:00N 53°33' E 009°59'0 0.0
2017-May-06 01:30N 53°33' E 009°59'0 0.0
2017-May-06 01:00N 53°33' E 009°59'0 0.0
2017-May-06 00:30N 53°33' E 009°59'0 0.0
2017-May-06 00:00N 53°33' E 009°59'0 0.0
2017-May-05 23:30N 53°33' E 009°59'0 0.0
2017-May-05 23:00N 53°33' E 009°59'0 0.0
2017-May-05 22:30N 53°33' E 009°59'0 0.0
2017-May-05 22:00N 53°33' E 009°59'0 0.0
2017-May-05 21:30N 53°33' E 009°59'0 0.0
2017-May-05 21:00N 53°33' E 009°59'0 0.0
2017-May-05 20:30N 53°33' E 009°59'0 0.0
2017-May-05 20:00N 53°33' E 009°59'0 0.0
2017-May-05 19:30N 53°33' E 009°59'0 0.0
2017-May-05 19:00N 53°33' E 009°59'0 0.0
2017-May-05 18:30N 53°33' E 009°59'0 0.0
2017-May-05 18:00N 53°33' E 009°59'0 0.0
2017-May-05 17:30N 53°33' E 009°59'0 0.0
2017-May-05 17:00N 53°33' E 009°59'0 0.0
2017-May-05 16:30N 53°33' E 009°59'0 0.0
2017-May-05 16:00N 53°33' E 009°59'0 0.9
2017-May-05 15:30N 53°32' E 009°59'1 3.0
2017-May-05 15:01N 53°33' E 009°57'2 4.8
2017-May-05 14:31N 53°32' E 009°53'2 2.2
2017-May-05 13:30N 53°33' E 009°56'1 2.8
2017-May-05 13:01N 53°33' E 009°59'0 0.0
2017-May-05 12:31N 53°33' E 009°59'0 0.0
2017-May-05 12:01N 53°33' E 009°59'0 0.0
2017-May-05 11:31N 53°33' E 009°59'0 0.0
2017-May-05 11:00N 53°33' E 009°59'2 3.4
2017-May-05 10:30N 53°32' E 009°56'3 6.0
2017-May-05 10:01N 53°33' E 009°51'1 1.0
2017-May-05 09:31N 53°33' E 009°52'2 3.4
2017-May-05 09:01N 53°33' E 009°55'2 3.4
2017-May-05 08:31N 53°33' E 009°57'1 1.5
2017-May-05 08:01N 53°33' E 009°59'0 0.0
2017-May-05 07:31N 53°33' E 009°59'0 0.0
2017-May-05 07:01N 53°33' E 009°59'0 0.0
2017-May-05 06:31N 53°33' E 009°59'0 0.0
2017-May-05 06:00N 53°33' E 009°59'0 0.0
2017-May-05 05:31N 53°33' E 009°59'0 0.0
2017-May-05 05:00N 53°33' E 009°59'0 0.0
2017-May-05 04:30N 53°33' E 009°59'0 0.0
2017-May-05 04:01N 53°33' E 009°59'0 0.0
2017-May-05 03:31N 53°33' E 009°59'0 0.0
2017-May-05 03:00N 53°33' E 009°59'0 0.0
2017-May-05 02:31N 53°33' E 009°59'0 0.0
2017-May-05 02:01N 53°33' E 009°59'0 0.0
2017-May-05 01:30N 53°33' E 009°59'0 0.0
2017-May-05 01:01N 53°33' E 009°59'0 0.0
2017-May-05 00:31N 53°33' E 009°59'0 0.0
2017-May-05 00:01N 53°33' E 009°59'0 0.0
2017-May-04 23:31N 53°33' E 009°59'0 0.0
2017-May-04 23:01N 53°33' E 009°59'0 0.0
2017-May-04 22:31N 53°33' E 009°59'0 0.0
2017-May-04 22:00N 53°33' E 009°59'0 0.0
2017-May-04 21:31N 53°33' E 009°59'0 0.0
2017-May-04 21:00N 53°33' E 009°59'0 0.0
2017-May-04 20:31N 53°33' E 009°59'0 0.0
2017-May-04 20:00N 53°33' E 009°59'0 0.0
2017-May-04 19:30N 53°33' E 009°59'0 0.0
2017-May-04 19:00N 53°33' E 009°59'0 0.0
2017-May-04 18:31N 53°33' E 009°59'0 0.0
2017-May-04 18:00N 53°33' E 009°59'0 0.0
2017-May-04 17:30N 53°33' E 009°59'0 0.0
2017-May-04 17:01N 53°33' E 009°59'0 0.0
2017-May-04 16:30N 53°33' E 009°59'0 0.0
2017-May-04 16:00N 53°33' E 009°59'0 0.0
2017-May-04 15:31N 53°33' E 009°59'0 0.0
2017-May-04 15:00N 53°33' E 009°59'0 0.0
2017-May-04 14:01N 53°33' E 009°59'0 0.0
2017-May-04 13:31N 53°33' E 009°59'0 0.0
2017-May-04 13:01N 53°33' E 009°59'0 0.0
2017-May-04 12:31N 53°33' E 009°59'0 0.0
2017-May-04 12:01N 53°33' E 009°59'0 0.0
2017-May-04 11:30N 53°33' E 009°59'0 0.0
2017-May-04 11:00N 53°33' E 009°59'0 0.0
2017-May-04 10:30N 53°33' E 009°59'0 0.0
2017-May-04 10:01N 53°33' E 009°59'0 0.0
2017-May-04 09:30N 53°33' E 009°59'0 0.0
2017-May-04 09:00N 53°33' E 009°59'0 0.0
2017-May-04 08:31N 53°33' E 009°59'0 0.0
2017-May-04 08:01N 53°33' E 009°59'0 0.0
2017-May-04 07:31N 53°33' E 009°59'0 0.0
2017-May-04 07:01N 53°33' E 009°59'0 0.0
2017-May-04 06:30N 53°33' E 009°59'0 0.0
2017-May-04 06:00N 53°33' E 009°59'0 0.0
2017-May-04 05:31N 53°33' E 009°59'0 0.0
2017-May-04 05:01N 53°33' E 009°59'0 0.0
2017-May-04 04:31N 53°33' E 009°59'0 0.0
2017-May-04 04:01N 53°33' E 009°59'0 0.0
2017-May-04 03:31N 53°33' E 009°59'0 0.0
2017-May-04 03:01N 53°33' E 009°59'0 0.0
2017-May-04 02:30N 53°33' E 009°59'0 0.0
2017-May-04 02:01N 53°33' E 009°59'0 0.0
2017-May-04 01:30N 53°33' E 009°59'0 0.0
2017-May-04 01:01N 53°33' E 009°59'0 0.0
2017-May-04 00:31N 53°33' E 009°59'0 0.0
2017-May-04 00:01N 53°33' E 009°59'0 0.0
2017-May-03 23:31N 53°33' E 009°59'0 0.0
2017-May-03 23:01N 53°33' E 009°59'0 0.0
2017-May-03 22:31N 53°33' E 009°59'0 0.0
2017-May-03 22:01N 53°33' E 009°59'0 0.0
2017-May-03 21:30N 53°33' E 009°59'0 0.0
2017-May-03 21:01N 53°33' E 009°59'0 0.0
2017-May-03 20:31N 53°33' E 009°59'0 0.0
2017-May-03 20:01N 53°33' E 009°59'0 0.0
2017-May-03 19:31N 53°33' E 009°59'0 0.0
2017-May-03 19:01N 53°33' E 009°59'0 0.0
2017-May-03 18:31N 53°33' E 009°59'0 0.0
2017-May-03 18:01N 53°33' E 009°59'0 0.0
2017-May-03 17:31N 53°33' E 009°59'0 0.0
2017-May-03 17:00N 53°33' E 009°59'0 0.0
2017-May-03 16:31N 53°33' E 009°59'0 0.0
2017-May-03 16:01N 53°33' E 009°59'0 0.0
2017-May-03 15:31N 53°33' E 009°59'0 0.0
2017-May-03 15:01N 53°33' E 009°59'0 0.0
2017-May-03 14:01N 53°33' E 009°59'0 0.0
2017-May-03 13:30N 53°33' E 009°59'0 0.0
2017-May-03 13:01N 53°33' E 009°59'0 0.0
2017-May-03 12:30N 53°33' E 009°59'0 0.0
2017-May-03 12:01N 53°33' E 009°59'0 0.0
2017-May-03 11:31N 53°33' E 009°59'0 0.0
2017-May-03 11:00N 53°33' E 009°59'0 0.0
2017-May-03 10:31N 53°33' E 009°59'0 0.0
2017-May-03 10:01N 53°33' E 009°59'0 0.0
2017-May-03 09:31N 53°33' E 009°59'0 0.0
2017-May-03 09:00N 53°33' E 009°59'0 0.1
2017-May-03 08:31N 53°33' E 009°59'3 5.9
2017-May-03 08:01N 53°32' E 009°54'4 7.3
2017-May-03 07:31N 53°33' E 009°48'4 7.8
2017-May-03 07:00N 53°34' E 009°41'4 7.4
2017-May-03 06:31N 53°36' E 009°36'4 8.0
2017-May-03 06:00N 53°39' E 009°31'4 8.8
2017-May-03 05:31N 53°43' E 009°29'4 8.4
2017-May-03 05:00N 53°46' E 009°24'2 3.1
2017-May-03 04:30N 53°47' E 009°24'0 0.5
2017-May-03 04:00N 53°47' E 009°25'0 0.0
2017-May-03 03:30N 53°47' E 009°25'0 0.0
2017-May-03 03:00N 53°47' E 009°25'0 0.0
2017-May-03 02:30N 53°47' E 009°25'0 0.0
2017-May-03 02:00N 53°47' E 009°25'0 0.0
2017-May-03 01:30N 53°47' E 009°25'0 0.0
2017-May-03 01:00N 53°47' E 009°25'0 0.0
2017-May-03 00:30N 53°47' E 009°25'0 0.0
2017-May-03 00:00N 53°47' E 009°25'0 0.0
2017-May-02 23:30N 53°47' E 009°25'0 0.0
2017-May-02 23:00N 53°47' E 009°25'0 0.0
2017-May-02 22:30N 53°47' E 009°25'0 0.0
2017-May-02 22:00N 53°47' E 009°25'0 0.0
2017-May-02 21:30N 53°47' E 009°25'0 0.0
2017-May-02 21:00N 53°47' E 009°25'0 0.0
2017-May-02 20:30N 53°47' E 009°25'0 0.0
2017-May-02 20:00N 53°47' E 009°25'0 0.0
2017-May-02 19:30N 53°47' E 009°25'0 0.0
2017-May-02 19:00N 53°47' E 009°25'0 0.0
2017-May-02 18:31N 53°47' E 009°25'0 0.0
2017-May-02 18:00N 53°47' E 009°25'0 0.0
2017-May-02 17:30N 53°47' E 009°25'0 0.0
2017-May-02 17:00N 53°47' E 009°25'0 0.0
2017-May-02 16:30N 53°47' E 009°25'0 0.0
2017-May-02 16:00N 53°47' E 009°25'1 1.0
2017-May-02 15:30N 53°47' E 009°24'4 8.2
2017-May-02 15:00N 53°51' E 009°20'5 9.4
2017-May-02 14:31N 53°53' E 009°13'8 8.2
2017-May-02 13:31N 53°51' E 008°59'4 7.8
2017-May-02 13:00N 53°50' E 008°52'4 6.8
2017-May-02 12:29N 53°51' E 008°46'4 6.3
2017-May-02 11:54N 53°53' E 008°42'  
2017-Apr-29 23:56N 53°19' E 005°03'4 7.9
2017-Apr-29 23:27N 53°19' E 005°10'3 6.5
2017-Apr-29 22:59N 53°16' E 005°10'3 5.8
2017-Apr-29 22:31N 53°14' E 005°13'3 6.1
2017-Apr-29 22:01N 53°13' E 005°18'3 5.7
2017-Apr-29 21:31N 53°11' E 005°21'2 4.3
2017-Apr-29 21:00N 53°10' E 005°25'0 0.0
2017-Apr-29 20:30N 53°10' E 005°25'0 0.0
2017-Apr-29 20:00N 53°10' E 005°25'0 0.0
2017-Apr-29 19:30N 53°10' E 005°25'0 0.0
2017-Apr-29 19:00N 53°10' E 005°25'0 0.0
2017-Apr-29 18:27N 53°10' E 005°25'0 0.0
2017-Apr-29 18:00N 53°10' E 005°25'0 0.0
2017-Apr-29 17:30N 53°10' E 005°25'0 0.0
2017-Apr-29 17:00N 53°10' E 005°25'0 0.0
2017-Apr-29 16:30N 53°10' E 005°25'0 0.0
2017-Apr-29 16:00N 53°10' E 005°25'0 0.0
2017-Apr-29 15:30N 53°10' E 005°25'0 0.0
2017-Apr-29 15:00N 53°10' E 005°25'0 0.0
2017-Apr-29 14:00N 53°10' E 005°25'0 0.0
2017-Apr-29 13:30N 53°10' E 005°25'0 0.0
2017-Apr-29 13:00N 53°10' E 005°25'0 0.0
2017-Apr-29 12:30N 53°10' E 005°25'0 0.0
2017-Apr-29 12:00N 53°10' E 005°25'  

Dump ship's entire track history